createdAt,value
2022-08-17T00:00:42.861Z,18.40
2022-08-17T00:03:19.406Z,18.44
2022-08-17T00:06:00.081Z,18.44
2022-08-17T00:08:32.609Z,18.47
2022-08-17T00:11:01.807Z,18.48
2022-08-17T00:13:36.991Z,18.46
2022-08-17T00:16:11.331Z,18.41
2022-08-17T00:19:06.744Z,18.39
2022-08-17T00:21:49.168Z,18.37
2022-08-17T00:24:18.104Z,18.32
2022-08-17T00:26:47.170Z,18.27
2022-08-17T00:29:19.722Z,18.20
2022-08-17T00:31:49.540Z,18.13
2022-08-17T00:34:18.100Z,18.07
2022-08-17T00:36:46.106Z,18.04
2022-08-17T00:39:14.227Z,18.07
2022-08-17T00:41:42.763Z,18.11
2022-08-17T00:44:12.448Z,18.17
2022-08-17T00:46:42.995Z,18.22
2022-08-17T00:49:13.744Z,18.18
2022-08-17T00:52:15.697Z,18.12
2022-08-17T00:54:47.103Z,18.04
2022-08-17T00:57:32.995Z,18.00
2022-08-17T01:00:06.504Z,17.98
2022-08-17T01:02:42.265Z,17.99
2022-08-17T01:05:18.648Z,18.02
2022-08-17T01:07:51.010Z,18.03
2022-08-17T01:10:59.305Z,18.08
2022-08-17T01:13:13.897Z,18.11
2022-08-17T01:15:49.067Z,18.15
2022-08-17T01:18:17.112Z,18.14
2022-08-17T01:20:49.850Z,18.10
2022-08-17T01:23:21.401Z,18.02
2022-08-17T01:25:52.085Z,17.95
2022-08-17T01:28:52.418Z,17.83
2022-08-17T01:31:09.524Z,17.74
2022-08-17T01:33:37.909Z,17.68
2022-08-17T01:36:07.415Z,17.64
2022-08-17T01:38:37.273Z,17.65
2022-08-17T01:41:15.543Z,17.69
2022-08-17T01:43:52.243Z,17.74
2022-08-17T01:46:27.322Z,17.76
2022-08-17T01:48:58.597Z,17.81
2022-08-17T01:51:33.298Z,17.84
2022-08-17T01:54:11.223Z,17.86
2022-08-17T01:56:47.930Z,17.89
2022-08-17T01:59:20.240Z,17.91
2022-08-17T02:01:48.429Z,17.92
2022-08-17T02:04:16.463Z,17.87
2022-08-17T02:06:52.569Z,17.82
2022-08-17T02:09:29.597Z,17.77
2022-08-17T02:12:38.186Z,17.72
2022-08-17T02:14:50.439Z,17.70
2022-08-17T02:17:18.488Z,17.74
2022-08-17T02:19:46.516Z,17.78
2022-08-17T02:22:15.758Z,17.78
2022-08-17T02:24:59.469Z,17.75
2022-08-17T02:27:30.118Z,17.70
2022-08-17T02:29:58.134Z,17.69
2022-08-17T02:32:28.523Z,17.67
2022-08-17T02:34:58.075Z,17.69
2022-08-17T02:37:27.532Z,17.70
2022-08-17T02:39:59.628Z,17.69
2022-08-17T02:42:38.456Z,17.70
2022-08-17T02:45:13.934Z,17.72
2022-08-17T02:47:43.602Z,17.69
2022-08-17T02:50:14.769Z,17.64
2022-08-17T02:52:45.057Z,17.60
2022-08-17T02:55:34.663Z,17.56
2022-08-17T02:58:03.931Z,17.55
2022-08-17T03:00:36.077Z,17.55
2022-08-17T03:03:30.520Z,17.54
2022-08-17T03:05:58.697Z,17.52
2022-08-17T03:09:43.229Z,17.48
2022-08-17T03:12:13.599Z,17.42
2022-08-17T03:14:43.357Z,17.43
2022-08-17T03:17:16.969Z,17.48
2022-08-17T03:19:45.354Z,17.53
2022-08-17T03:22:37.176Z,17.57
2022-08-17T03:25:01.246Z,17.65
2022-08-17T03:27:30.286Z,17.71
2022-08-17T03:29:58.220Z,17.72
2022-08-17T03:32:26.144Z,17.68
2022-08-17T03:34:59.617Z,17.62
2022-08-17T03:37:27.537Z,17.54
2022-08-17T03:39:55.693Z,17.47
2022-08-17T03:42:31.327Z,17.40
2022-08-17T03:45:01.553Z,17.35
2022-08-17T03:47:48.257Z,17.33
2022-08-17T03:50:36.854Z,17.31
2022-08-17T03:53:27.977Z,17.35
2022-08-17T03:56:19.060Z,17.40
2022-08-17T03:58:47.185Z,17.46
2022-08-17T04:01:16.393Z,17.48
2022-08-17T04:03:44.562Z,17.47
2022-08-17T04:06:12.498Z,17.44
2022-08-17T04:08:40.460Z,17.41
2022-08-17T04:11:08.353Z,17.40
2022-08-17T04:13:36.239Z,17.43
2022-08-17T04:16:04.458Z,17.47
2022-08-17T04:18:32.417Z,17.54
2022-08-17T04:21:01.633Z,17.61
2022-08-17T04:23:33.770Z,17.69
2022-08-17T04:26:02.192Z,17.78
2022-08-17T04:28:31.188Z,17.88
2022-08-17T04:30:59.269Z,17.96
2022-08-17T04:33:29.579Z,18.01
2022-08-17T04:36:00.640Z,18.04
2022-08-17T04:38:32.194Z,17.99
2022-08-17T04:41:19.604Z,17.97
2022-08-17T04:43:49.670Z,18.01
2022-08-17T04:46:19.625Z,18.06
2022-08-17T04:48:51.083Z,18.14
2022-08-17T04:51:28.241Z,18.22
2022-08-17T04:54:00.454Z,18.29
2022-08-17T04:56:30.382Z,18.39
2022-08-17T04:59:06.015Z,18.46
2022-08-17T05:01:36.701Z,18.54
2022-08-17T05:04:20.965Z,18.64
2022-08-17T05:06:59.263Z,18.75
2022-08-17T05:09:29.198Z,18.83
2022-08-17T05:12:01.567Z,18.90
2022-08-17T05:14:33.093Z,18.97
2022-08-17T05:17:09.393Z,19.06
2022-08-17T05:19:39.516Z,19.16
2022-08-17T05:22:08.088Z,19.22
2022-08-17T05:24:43.292Z,19.21
2022-08-17T05:27:19.556Z,19.17
2022-08-17T05:29:47.677Z,19.15
2022-08-17T05:32:38.550Z,19.15
2022-08-17T05:35:05.815Z,19.17
2022-08-17T05:37:33.778Z,19.18
2022-08-17T05:40:01.863Z,19.22
2022-08-17T05:42:29.954Z,19.26
2022-08-17T05:44:58.340Z,19.31
2022-08-17T05:47:27.435Z,19.33
2022-08-17T05:49:55.694Z,19.37
2022-08-17T05:52:42.226Z,19.42
2022-08-17T05:55:13.362Z,19.47
2022-08-17T05:57:56.351Z,19.56
2022-08-17T06:00:37.291Z,19.64
2022-08-17T06:03:18.583Z,19.73
2022-08-17T06:05:50.568Z,19.77
2022-08-17T06:08:27.614Z,19.82
2022-08-17T06:11:20.074Z,19.90
2022-08-17T06:13:48.310Z,20.05
2022-08-17T06:16:33.247Z,20.15
2022-08-17T06:19:11.857Z,20.28
2022-08-17T06:21:43.937Z,20.44
2022-08-17T06:24:20.511Z,20.59
2022-08-17T06:26:49.168Z,20.73
2022-08-17T06:29:41.550Z,20.83
2022-08-17T06:32:13.006Z,20.95
2022-08-17T06:34:43.796Z,21.07
2022-08-17T06:37:39.295Z,21.26
2022-08-17T06:40:22.281Z,21.50
2022-08-17T06:43:16.017Z,21.65
2022-08-17T06:45:49.618Z,21.76
2022-08-17T06:48:36.539Z,21.86
2022-08-17T06:51:17.762Z,21.94
2022-08-17T06:53:52.758Z,22.02
2022-08-17T06:56:54.532Z,22.08
2022-08-17T06:59:53.011Z,22.18
2022-08-17T07:02:53.045Z,22.37
2022-08-17T07:05:26.677Z,22.54
2022-08-17T07:08:45.879Z,22.62
2022-08-17T07:11:21.370Z,22.74
2022-08-17T07:14:16.939Z,22.80
2022-08-17T07:16:54.224Z,22.94
2022-08-17T07:19:26.846Z,23.05
2022-08-17T07:22:04.067Z,23.17
2022-08-17T07:24:43.389Z,23.33
2022-08-17T07:27:21.405Z,23.43
2022-08-17T07:29:57.997Z,23.51
2022-08-17T07:32:34.525Z,23.66
2022-08-17T07:35:10.743Z,23.71
2022-08-17T07:38:03.875Z,23.77
2022-08-17T07:40:36.646Z,23.89
2022-08-17T07:43:21.817Z,23.97
2022-08-17T07:46:32.734Z,24.03
2022-08-17T07:49:03.726Z,24.18
2022-08-17T07:51:36.601Z,24.29
2022-08-17T07:54:22.694Z,24.36
2022-08-17T07:57:01.530Z,24.51
2022-08-17T07:59:35.546Z,24.60
2022-08-17T08:02:31.105Z,24.67
2022-08-17T08:05:09.035Z,24.76
2022-08-17T08:08:00.880Z,24.88
2022-08-17T08:10:38.243Z,25.03
2022-08-17T08:13:15.747Z,25.12
2022-08-17T08:15:54.076Z,25.17
2022-08-17T08:18:54.917Z,25.29
2022-08-17T08:21:43.165Z,25.49
2022-08-17T08:24:40.820Z,25.64
2022-08-17T08:27:39.281Z,25.79
2022-08-17T08:30:21.681Z,25.91
2022-08-17T08:33:08.627Z,25.97
2022-08-17T08:35:52.482Z,26.07
2022-08-17T08:38:47.515Z,26.09
2022-08-17T08:41:24.449Z,26.13
2022-08-17T08:43:58.609Z,26.17
2022-08-17T08:46:31.189Z,26.25
2022-08-17T08:50:01.427Z,26.32
2022-08-17T08:52:31.156Z,26.45
2022-08-17T08:55:05.488Z,26.49
2022-08-17T08:58:31.497Z,26.61
2022-08-17T09:01:21.283Z,26.74
2022-08-17T09:04:25.385Z,26.81
2022-08-17T09:07:05.687Z,26.77
2022-08-17T09:09:59.023Z,26.68
2022-08-17T09:12:49.214Z,26.85
2022-08-17T09:15:26.806Z,27.04
2022-08-17T09:18:36.443Z,27.18
2022-08-17T09:21:01.681Z,27.12
2022-08-17T09:24:00.079Z,27.18
2022-08-17T09:26:56.395Z,27.28
2022-08-17T09:29:29.603Z,27.52
2022-08-17T09:32:03.735Z,27.80
2022-08-17T09:34:43.426Z,27.87
2022-08-17T09:37:29.722Z,27.73
2022-08-17T09:39:57.708Z,27.77
2022-08-17T09:42:49.999Z,27.91
2022-08-17T09:45:47.259Z,28.09
2022-08-17T09:48:20.993Z,28.16
2022-08-17T09:51:15.300Z,28.01
2022-08-17T09:53:44.720Z,27.74
2022-08-17T09:56:31.723Z,27.66
2022-08-17T09:59:08.194Z,27.87
2022-08-17T10:02:17.166Z,28.12
2022-08-17T10:04:59.412Z,28.23
2022-08-17T10:07:40.785Z,28.32
2022-08-17T10:10:14.615Z,28.29
2022-08-17T10:12:48.743Z,28.24
2022-08-17T10:15:29.896Z,28.20
2022-08-17T10:18:31.841Z,28.33
2022-08-17T10:21:25.378Z,28.49
2022-08-17T10:25:21.560Z,28.51
2022-08-17T10:27:48.893Z,28.69
2022-08-17T10:30:20.133Z,28.85
2022-08-17T10:32:55.154Z,29.00
2022-08-17T10:35:49.640Z,29.16
2022-08-17T10:38:38.549Z,29.39
2022-08-17T10:41:40.875Z,29.43
2022-08-17T10:44:42.549Z,29.50
2022-08-17T10:47:16.929Z,29.65
2022-08-17T10:49:54.295Z,29.50
2022-08-17T10:52:24.821Z,29.25
2022-08-17T10:54:58.223Z,29.31
2022-08-17T10:57:49.758Z,29.57
2022-08-17T11:00:24.293Z,29.92
2022-08-17T11:02:57.684Z,30.05
2022-08-17T11:05:43.738Z,30.18
2022-08-17T11:08:15.254Z,30.11
2022-08-17T11:10:49.936Z,29.91
2022-08-17T11:13:40.671Z,29.68
2022-08-17T11:16:28.431Z,29.53
2022-08-17T11:19:27.061Z,29.62
2022-08-17T11:22:33.527Z,29.72
2022-08-17T11:25:16.431Z,29.89
2022-08-17T11:27:49.793Z,30.06
2022-08-17T11:30:47.059Z,30.27
2022-08-17T11:33:36.649Z,30.26
2022-08-17T11:36:23.530Z,30.07
2022-08-17T11:38:58.192Z,29.90
2022-08-17T11:42:09.366Z,29.68
2022-08-17T11:44:55.478Z,29.40
2022-08-17T11:48:02.239Z,29.16
2022-08-17T11:51:10.183Z,29.12
2022-08-17T11:53:38.002Z,29.42
2022-08-17T11:56:31.852Z,29.57
2022-08-17T11:59:00.972Z,29.52
2022-08-17T12:01:29.406Z,29.57
2022-08-17T12:04:25.430Z,29.71
2022-08-17T12:06:59.961Z,29.99
2022-08-17T12:09:32.525Z,30.42
2022-08-17T12:12:36.056Z,30.86
2022-08-17T12:15:12.102Z,31.07
2022-08-17T12:17:42.861Z,30.86
2022-08-17T12:20:24.267Z,30.84
2022-08-17T12:23:05.081Z,30.79
2022-08-17T12:25:45.985Z,30.71
2022-08-17T12:28:30.008Z,30.54
2022-08-17T12:31:05.986Z,30.39
2022-08-17T12:33:36.988Z,30.42
2022-08-17T12:36:08.901Z,30.74
2022-08-17T12:38:38.376Z,31.03
2022-08-17T12:41:28.461Z,31.47
2022-08-17T12:44:05.869Z,31.86
2022-08-17T12:46:47.273Z,32.02
2022-08-17T12:49:22.787Z,32.22
2022-08-17T12:51:56.088Z,32.40
2022-08-17T12:54:31.490Z,32.20
2022-08-17T12:57:09.229Z,32.05
2022-08-17T12:59:41.475Z,31.65
2022-08-17T13:02:24.750Z,31.33
2022-08-17T13:04:53.804Z,31.02
2022-08-17T13:07:35.260Z,31.05
2022-08-17T13:10:04.489Z,31.44
2022-08-17T13:12:35.379Z,31.94
2022-08-17T13:15:04.420Z,32.21
2022-08-17T13:17:35.972Z,31.92
2022-08-17T13:20:13.484Z,31.61
2022-08-17T13:22:43.527Z,31.41
2022-08-17T13:25:16.917Z,31.46
2022-08-17T13:27:47.774Z,31.56
2022-08-17T13:30:23.974Z,31.88
2022-08-17T13:32:53.990Z,32.19
2022-08-17T13:35:40.610Z,32.31
2022-08-17T13:38:49.690Z,32.62
2022-08-17T13:41:34.696Z,32.73
2022-08-17T13:44:04.402Z,32.75
2022-08-17T13:46:33.425Z,32.83
2022-08-17T13:49:11.752Z,32.91
2022-08-17T13:51:45.793Z,33.18
2022-08-17T13:54:23.613Z,33.56
2022-08-17T13:56:51.426Z,33.81
2022-08-17T13:59:54.868Z,33.41
2022-08-17T14:02:27.689Z,32.70
2022-08-17T14:04:58.484Z,32.32
2022-08-17T14:07:34.136Z,32.32
2022-08-17T14:10:13.770Z,32.30
2022-08-17T14:12:43.901Z,32.37
2022-08-17T14:15:14.876Z,32.32
2022-08-17T14:17:42.851Z,32.59
2022-08-17T14:20:13.397Z,32.89
2022-08-17T14:22:45.440Z,33.21
2022-08-17T14:25:24.222Z,33.50
2022-08-17T14:27:54.067Z,33.87
2022-08-17T14:30:25.913Z,34.04
2022-08-17T14:32:58.299Z,33.76
2022-08-17T14:35:28.277Z,33.28
2022-08-17T14:37:57.391Z,32.73
2022-08-17T14:40:25.942Z,32.08
2022-08-17T14:42:56.056Z,31.55
2022-08-17T14:45:32.892Z,31.13
2022-08-17T14:48:04.427Z,31.27
2022-08-17T14:50:35.318Z,31.71
2022-08-17T14:53:06.044Z,32.13
2022-08-17T14:55:35.096Z,32.27
2022-08-17T14:58:04.284Z,32.25
2022-08-17T15:00:32.746Z,32.35
2022-08-17T15:03:01.979Z,32.40
2022-08-17T15:05:33.730Z,32.38
2022-08-17T15:08:03.316Z,32.44
2022-08-17T15:10:32.035Z,32.68
2022-08-17T15:13:00.601Z,32.84
2022-08-17T15:15:29.678Z,32.99
2022-08-17T15:18:00.118Z,33.14
2022-08-17T15:20:29.994Z,33.26
2022-08-17T15:22:59.356Z,33.35
2022-08-17T15:25:32.303Z,33.21
2022-08-17T15:28:01.723Z,32.98
2022-08-17T15:30:31.613Z,33.12
2022-08-17T15:33:01.951Z,33.24
2022-08-17T15:35:33.281Z,33.08
2022-08-17T15:38:11.287Z,33.12
2022-08-17T15:40:47.027Z,33.12
2022-08-17T15:43:23.316Z,33.02
2022-08-17T15:46:18.232Z,33.03
2022-08-17T15:48:49.725Z,33.29
2022-08-17T15:51:17.768Z,33.62
2022-08-17T15:53:50.773Z,34.06
2022-08-17T15:56:19.687Z,34.28
2022-08-17T15:58:48.891Z,34.22
2022-08-17T16:02:11.974Z,34.16
2022-08-17T16:04:14.921Z,34.10
2022-08-17T16:06:57.803Z,33.86
2022-08-17T16:09:26.067Z,33.61
2022-08-17T16:11:56.317Z,33.45
2022-08-17T16:14:32.554Z,33.43
2022-08-17T16:17:05.021Z,33.33
2022-08-17T16:19:53.031Z,33.22
2022-08-17T16:22:33.202Z,33.10
2022-08-17T16:25:08.358Z,33.18
2022-08-17T16:27:36.330Z,33.09
2022-08-17T16:30:07.545Z,33.24
2022-08-17T16:32:36.324Z,33.43
2022-08-17T16:35:08.921Z,33.27
2022-08-17T16:37:39.638Z,33.33
2022-08-17T16:40:10.525Z,33.46
2022-08-17T16:42:42.951Z,33.51
2022-08-17T16:45:14.743Z,33.48
2022-08-17T16:47:43.139Z,33.39
2022-08-17T16:50:14.744Z,33.22
2022-08-17T16:52:42.767Z,33.19
2022-08-17T16:55:13.447Z,33.25
2022-08-17T16:57:48.556Z,33.39
2022-08-17T17:00:20.970Z,33.43
2022-08-17T17:02:50.157Z,33.43
2022-08-17T17:05:51.308Z,33.46
2022-08-17T17:08:31.865Z,33.26
2022-08-17T17:11:08.937Z,33.19
2022-08-17T17:13:54.309Z,33.22
2022-08-17T17:16:29.722Z,33.05
2022-08-17T17:19:08.351Z,32.92
2022-08-17T17:21:49.793Z,32.73
2022-08-17T17:24:53.221Z,32.40
2022-08-17T17:27:59.611Z,32.01
2022-08-17T17:30:46.024Z,31.50
2022-08-17T17:33:34.877Z,31.04
2022-08-17T17:36:13.970Z,30.50
2022-08-17T17:38:50.142Z,30.03
2022-08-17T17:41:32.606Z,29.58
2022-08-17T17:44:07.591Z,29.14
2022-08-17T17:46:40.738Z,28.76
2022-08-17T17:49:14.412Z,28.42
2022-08-17T17:52:11.059Z,28.08
2022-08-17T17:54:59.392Z,27.72
2022-08-17T17:57:56.035Z,27.41
2022-08-17T18:00:30.766Z,27.07
2022-08-17T18:03:20.649Z,26.85
2022-08-17T18:06:06.957Z,26.64
2022-08-17T18:09:04.299Z,26.44
2022-08-17T18:12:00.827Z,26.23
2022-08-17T18:14:28.825Z,26.05
2022-08-17T18:16:59.266Z,25.93
2022-08-17T18:19:30.025Z,25.77
2022-08-17T18:22:14.595Z,25.64
2022-08-17T18:24:46.303Z,25.52
2022-08-17T18:27:40.721Z,25.41
2022-08-17T18:30:14.589Z,25.32
2022-08-17T18:32:46.691Z,25.25
2022-08-17T18:35:14.654Z,25.21
2022-08-17T18:37:43.070Z,25.17
2022-08-17T18:40:17.261Z,25.12
2022-08-17T18:42:57.543Z,25.05
2022-08-17T18:45:38.653Z,24.98
2022-08-17T18:48:19.775Z,24.91
2022-08-17T18:50:48.476Z,24.84
2022-08-17T18:53:34.278Z,24.75
2022-08-17T18:56:22.549Z,24.67
2022-08-17T18:59:04.540Z,24.60
2022-08-17T19:01:59.929Z,24.52
2022-08-17T19:04:34.094Z,24.42
2022-08-17T19:07:22.145Z,24.35
2022-08-17T19:09:53.357Z,24.20
2022-08-17T19:13:14.345Z,24.05
2022-08-17T19:16:15.917Z,23.75
2022-08-17T19:18:52.356Z,23.57
2022-08-17T19:21:40.598Z,23.46
2022-08-17T19:24:20.082Z,23.35
2022-08-17T19:27:06.616Z,23.21
2022-08-17T19:29:50.631Z,23.09
2022-08-17T19:32:23.595Z,22.98
2022-08-17T19:34:52.558Z,22.92
2022-08-17T19:37:32.964Z,22.87
2022-08-17T19:40:29.276Z,22.77
2022-08-17T19:43:02.610Z,22.61
2022-08-17T19:45:40.007Z,22.51
2022-08-17T19:48:12.747Z,22.42
2022-08-17T19:51:07.889Z,22.40
2022-08-17T19:54:15.464Z,22.34
2022-08-17T19:57:02.692Z,22.21
2022-08-17T20:00:03.051Z,22.06
2022-08-17T20:02:42.346Z,21.91
2022-08-17T20:06:08.839Z,21.85
2022-08-17T20:08:33.473Z,21.80
2022-08-17T20:11:15.274Z,21.78
2022-08-17T20:13:50.201Z,21.75
2022-08-17T20:16:20.211Z,21.73
2022-08-17T20:18:50.686Z,21.71
2022-08-17T20:21:23.699Z,21.69
2022-08-17T20:24:14.198Z,21.68
2022-08-17T20:26:57.900Z,21.65
2022-08-17T20:29:37.268Z,21.61
2022-08-17T20:32:19.017Z,21.54
2022-08-17T20:34:48.010Z,21.49
2022-08-17T20:37:15.907Z,21.49
2022-08-17T20:39:50.222Z,21.49
2022-08-17T20:42:20.949Z,21.49
2022-08-17T20:44:58.140Z,21.48
2022-08-17T20:47:55.095Z,21.50
2022-08-17T20:50:34.857Z,21.61
2022-08-17T20:53:05.518Z,21.72
2022-08-17T20:55:51.520Z,21.81
2022-08-17T20:58:30.624Z,21.86
2022-08-17T21:01:00.276Z,21.88
2022-08-17T21:03:28.422Z,21.91
2022-08-17T21:06:19.255Z,21.96
2022-08-17T21:08:58.776Z,22.04
2022-08-17T21:11:56.766Z,22.15
2022-08-17T21:14:56.513Z,22.30
2022-08-17T21:17:33.483Z,22.36
2022-08-17T21:20:43.315Z,22.34
2022-08-17T21:23:22.794Z,22.33
2022-08-17T21:26:02.687Z,22.34
2022-08-17T21:29:00.450Z,22.37
2022-08-17T21:32:09.730Z,22.41
2022-08-17T21:34:43.215Z,22.48
2022-08-17T21:37:20.232Z,22.50
2022-08-17T21:39:55.823Z,22.49
2022-08-17T21:42:32.205Z,22.50
2022-08-17T21:45:10.028Z,22.45
2022-08-17T21:47:43.513Z,22.43
2022-08-17T21:50:21.580Z,22.32
2022-08-17T21:52:56.120Z,22.23
2022-08-17T21:55:29.932Z,22.16
2022-08-17T21:58:14.916Z,22.12
2022-08-17T22:00:44.725Z,22.04
2022-08-17T22:03:26.599Z,21.98
2022-08-17T22:05:54.643Z,22.05
2022-08-17T22:08:25.330Z,22.16
2022-08-17T22:11:01.393Z,22.24
2022-08-17T22:13:30.041Z,22.31
2022-08-17T22:16:29.543Z,22.35
2022-08-17T22:18:59.609Z,22.32
2022-08-17T22:21:27.557Z,22.31
2022-08-17T22:24:06.245Z,22.33
2022-08-17T22:27:06.201Z,22.23
2022-08-17T22:29:45.629Z,22.12
2022-08-17T22:32:35.191Z,22.06
2022-08-17T22:35:32.996Z,22.05
2022-08-17T22:38:19.580Z,22.05
2022-08-17T22:40:51.263Z,21.99
2022-08-17T22:43:24.200Z,21.93
2022-08-17T22:45:58.426Z,21.87
2022-08-17T22:48:29.473Z,21.79
2022-08-17T22:51:31.205Z,21.72
2022-08-17T22:54:21.923Z,21.68
2022-08-17T22:57:19.994Z,21.58
2022-08-17T23:04:01.618Z,21.62
2022-08-17T23:06:33.983Z,21.64
2022-08-17T23:09:04.381Z,21.69
2022-08-17T23:11:58.672Z,21.76
2022-08-17T23:14:31.726Z,21.78
2022-08-17T23:17:00.880Z,21.63
2022-08-17T23:19:31.866Z,21.54
2022-08-17T23:22:04.418Z,21.51
2022-08-17T23:24:43.614Z,21.58
2022-08-17T23:27:12.347Z,21.68
2022-08-17T23:29:42.253Z,21.79
2022-08-17T23:32:14.819Z,21.85
2022-08-17T23:34:45.156Z,21.84
2022-08-17T23:37:13.267Z,21.76
2022-08-17T23:39:44.674Z,21.66
2022-08-17T23:42:16.666Z,21.57
2022-08-17T23:44:44.973Z,21.46
2022-08-17T23:47:12.906Z,21.44
2022-08-17T23:49:42.140Z,21.48
2022-08-17T23:52:15.340Z,21.49
2022-08-17T23:54:48.265Z,21.45
2022-08-17T23:57:19.409Z,21.50
2022-08-17T23:59:47.311Z,21.59
